sensor_id;sensor_type;location;lat;lon;timestamp;P1;durP1;ratioP1;P2;durP2;ratioP2
25637;SDS011;13496;51.040;13.680;2023-11-19T00:04:48;4.47;;;4.07;;
25637;SDS011;13496;51.040;13.680;2023-11-19T00:09:50;4.68;;;4.18;;
25637;SDS011;13496;51.040;13.680;2023-11-19T00:14:52;5.00;;;4.50;;
25637;SDS011;13496;51.040;13.680;2023-11-19T00:19:54;3.97;;;3.58;;
25637;SDS011;13496;51.040;13.680;2023-11-19T00:24:56;4.22;;;3.83;;
25637;SDS011;13496;51.040;13.680;2023-11-19T00:29:58;5.05;;;3.83;;
25637;SDS011;13496;51.040;13.680;2023-11-19T00:35:00;4.38;;;3.85;;
25637;SDS011;13496;51.040;13.680;2023-11-19T00:40:02;4.45;;;3.65;;
25637;SDS011;13496;51.040;13.680;2023-11-19T00:45:06;5.32;;;3.80;;
25637;SDS011;13496;51.040;13.680;2023-11-19T00:50:14;4.60;;;4.20;;
25637;SDS011;13496;51.040;13.680;2023-11-19T00:55:15;4.03;;;3.63;;
25637;SDS011;13496;51.040;13.680;2023-11-19T01:00:17;4.30;;;3.90;;
25637;SDS011;13496;51.040;13.680;2023-11-19T01:05:25;4.30;;;3.90;;
25637;SDS011;13496;51.040;13.680;2023-11-19T01:10:27;5.25;;;3.90;;
25637;SDS011;13496;51.040;13.680;2023-11-19T01:15:30;4.53;;;3.63;;
25637;SDS011;13496;51.040;13.680;2023-11-19T01:20:31;3.83;;;3.53;;
25637;SDS011;13496;51.040;13.680;2023-11-19T01:25:35;3.23;;;3.03;;
25637;SDS011;13496;51.040;13.680;2023-11-19T01:30:38;4.07;;;3.33;;
25637;SDS011;13496;51.040;13.680;2023-11-19T01:35:40;4.17;;;3.67;;
25637;SDS011;13496;51.040;13.680;2023-11-19T01:40:42;3.75;;;3.45;;
25637;SDS011;13496;51.040;13.680;2023-11-19T01:45:44;4.10;;;3.70;;
25637;SDS011;13496;51.040;13.680;2023-11-19T01:50:45;3.42;;;3.13;;
25637;SDS011;13496;51.040;13.680;2023-11-19T01:55:47;3.70;;;3.40;;
25637;SDS011;13496;51.040;13.680;2023-11-19T02:00:50;3.60;;;3.30;;
25637;SDS011;13496;51.040;13.680;2023-11-19T02:05:52;3.53;;;3.22;;
25637;SDS011;13496;51.040;13.680;2023-11-19T02:10:54;3.78;;;3.17;;
25637;SDS011;13496;51.040;13.680;2023-11-19T02:15:58;3.63;;;3.05;;
25637;SDS011;13496;51.040;13.680;2023-11-19T02:21:00;3.50;;;3.20;;
25637;SDS011;13496;51.040;13.680;2023-11-19T02:26:05;4.07;;;3.00;;
25637;SDS011;13496;51.040;13.680;2023-11-19T02:31:26;3.05;;;2.85;;
25637;SDS011;13496;51.040;13.680;2023-11-19T02:36:28;3.00;;;2.80;;
25637;SDS011;13496;51.040;13.680;2023-11-19T02:41:30;3.00;;;2.80;;
25637;SDS011;13496;51.040;13.680;2023-11-19T02:46:32;3.10;;;2.90;;
25637;SDS011;13496;51.040;13.680;2023-11-19T02:51:34;3.00;;;2.80;;
25637;SDS011;13496;51.040;13.680;2023-11-19T02:56:36;3.42;;;2.95;;
25637;SDS011;13496;51.040;13.680;2023-11-19T03:01:40;6.28;;;2.70;;
25637;SDS011;13496;51.040;13.680;2023-11-19T03:06:45;3.00;;;2.70;;
25637;SDS011;13496;51.040;13.680;2023-11-19T03:11:47;3.40;;;3.10;;
25637;SDS011;13496;51.040;13.680;2023-11-19T03:16:49;3.45;;;2.67;;
25637;SDS011;13496;51.040;13.680;2023-11-19T03:21:50;2.90;;;2.70;;
25637;SDS011;13496;51.040;13.680;2023-11-19T03:26:52;2.93;;;2.63;;
25637;SDS011;13496;51.040;13.680;2023-11-19T03:31:54;2.73;;;2.53;;
25637;SDS011;13496;51.040;13.680;2023-11-19T03:36:56;2.80;;;2.60;;
25637;SDS011;13496;51.040;13.680;2023-11-19T03:42:00;2.60;;;2.40;;
25637;SDS011;13496;51.040;13.680;2023-11-19T03:47:01;2.47;;;2.28;;
25637;SDS011;13496;51.040;13.680;2023-11-19T03:52:03;2.45;;;2.30;;
25637;SDS011;13496;51.040;13.680;2023-11-19T03:57:07;2.47;;;2.28;;
25637;SDS011;13496;51.040;13.680;2023-11-19T04:02:09;2.50;;;2.30;;
25637;SDS011;13496;51.040;13.680;2023-11-19T04:07:10;2.53;;;2.33;;
25637;SDS011;13496;51.040;13.680;2023-11-19T04:12:12;2.60;;;2.40;;
25637;SDS011;13496;51.040;13.680;2023-11-19T04:17:14;2.40;;;2.20;;
25637;SDS011;13496;51.040;13.680;2023-11-19T04:22:15;2.50;;;2.30;;
25637;SDS011;13496;51.040;13.680;2023-11-19T04:27:20;2.33;;;2.13;;
25637;SDS011;13496;51.040;13.680;2023-11-19T04:32:21;1.90;;;1.80;;
25637;SDS011;13496;51.040;13.680;2023-11-19T04:37:24;2.17;;;2.00;;
25637;SDS011;13496;51.040;13.680;2023-11-19T04:42:26;2.17;;;1.97;;
25637;SDS011;13496;51.040;13.680;2023-11-19T04:47:28;2.30;;;2.10;;
25637;SDS011;13496;51.040;13.680;2023-11-19T04:52:29;3.00;;;1.90;;
25637;SDS011;13496;51.040;13.680;2023-11-19T04:57:31;2.63;;;2.00;;
25637;SDS011;13496;51.040;13.680;2023-11-19T05:02:34;2.38;;;2.00;;
25637;SDS011;13496;51.040;13.680;2023-11-19T05:07:36;2.30;;;2.10;;
25637;SDS011;13496;51.040;13.680;2023-11-19T05:12:37;2.20;;;1.90;;
25637;SDS011;13496;51.040;13.680;2023-11-19T05:17:40;2.47;;;2.27;;
25637;SDS011;13496;51.040;13.680;2023-11-19T05:22:42;2.00;;;1.80;;
25637;SDS011;13496;51.040;13.680;2023-11-19T05:27:44;1.80;;;1.70;;
25637;SDS011;13496;51.040;13.680;2023-11-19T05:32:46;1.90;;;1.80;;
25637;SDS011;13496;51.040;13.680;2023-11-19T05:37:47;2.08;;;1.90;;
25637;SDS011;13496;51.040;13.680;2023-11-19T05:42:51;2.70;;;1.90;;
25637;SDS011;13496;51.040;13.680;2023-11-19T05:47:52;3.27;;;1.80;;
25637;SDS011;13496;51.040;13.680;2023-11-19T05:52:54;2.20;;;2.00;;
25637;SDS011;13496;51.040;13.680;2023-11-19T05:57:56;3.07;;;2.20;;
25637;SDS011;13496;51.040;13.680;2023-11-19T06:02:58;2.28;;;1.80;;
25637;SDS011;13496;51.040;13.680;2023-11-19T06:07:59;2.40;;;1.90;;
25637;SDS011;13496;51.040;13.680;2023-11-19T06:13:01;2.17;;;1.98;;
25637;SDS011;13496;51.040;13.680;2023-11-19T06:18:06;3.00;;;1.67;;
25637;SDS011;13496;51.040;13.680;2023-11-19T06:23:08;2.20;;;1.77;;
25637;SDS011;13496;51.040;13.680;2023-11-19T06:28:10;2.00;;;1.67;;
25637;SDS011;13496;51.040;13.680;2023-11-19T06:33:14;3.50;;;1.88;;
25637;SDS011;13496;51.040;13.680;2023-11-19T06:38:18;2.47;;;1.60;;
25637;SDS011;13496;51.040;13.680;2023-11-19T06:43:20;4.82;;;2.00;;
25637;SDS011;13496;51.040;13.680;2023-11-19T06:48:23;2.83;;;1.97;;
25637;SDS011;13496;51.040;13.680;2023-11-19T06:53:24;2.37;;;1.87;;
25637;SDS011;13496;51.040;13.680;2023-11-19T06:58:26;2.65;;;1.75;;
25637;SDS011;13496;51.040;13.680;2023-11-19T07:03:28;3.13;;;1.73;;
25637;SDS011;13496;51.040;13.680;2023-11-19T07:08:29;3.15;;;1.85;;
25637;SDS011;13496;51.040;13.680;2023-11-19T07:13:31;2.10;;;1.90;;
25637;SDS011;13496;51.040;13.680;2023-11-19T07:18:33;2.55;;;1.98;;
25637;SDS011;13496;51.040;13.680;2023-11-19T07:23:36;2.10;;;1.60;;
25637;SDS011;13496;51.040;13.680;2023-11-19T07:28:38;2.28;;;1.70;;
25637;SDS011;13496;51.040;13.680;2023-11-19T07:33:41;3.80;;;1.63;;
25637;SDS011;13496;51.040;13.680;2023-11-19T07:38:45;2.67;;;1.70;;
25637;SDS011;13496;51.040;13.680;2023-11-19T07:43:48;3.27;;;1.90;;
25637;SDS011;13496;51.040;13.680;2023-11-19T07:48:52;2.43;;;1.60;;
25637;SDS011;13496;51.040;13.680;2023-11-19T07:53:54;3.87;;;1.90;;
25637;SDS011;13496;51.040;13.680;2023-11-19T07:58:55;2.42;;;1.80;;
25637;SDS011;13496;51.040;13.680;2023-11-19T08:03:57;2.10;;;1.80;;
25637;SDS011;13496;51.040;13.680;2023-11-19T08:08:59;2.83;;;1.60;;
25637;SDS011;13496;51.040;13.680;2023-11-19T08:14:01;2.15;;;1.73;;
25637;SDS011;13496;51.040;13.680;2023-11-19T08:19:02;1.73;;;1.60;;
25637;SDS011;13496;51.040;13.680;2023-11-19T08:24:04;1.98;;;1.77;;
25637;SDS011;13496;51.040;13.680;2023-11-19T08:29:06;2.17;;;1.60;;
25637;SDS011;13496;51.040;13.680;2023-11-19T08:34:09;1.88;;;1.70;;
25637;SDS011;13496;51.040;13.680;2023-11-19T08:39:12;2.80;;;1.73;;
25637;SDS011;13496;51.040;13.680;2023-11-19T08:44:15;6.13;;;1.80;;
25637;SDS011;13496;51.040;13.680;2023-11-19T08:49:17;4.30;;;1.70;;
25637;SDS011;13496;51.040;13.680;2023-11-19T08:54:18;1.73;;;1.63;;
25637;SDS011;13496;51.040;13.680;2023-11-19T08:59:22;6.18;;;2.00;;
25637;SDS011;13496;51.040;13.680;2023-11-19T09:04:24;4.53;;;1.60;;
25637;SDS011;13496;51.040;13.680;2023-11-19T09:09:25;3.50;;;1.60;;
25637;SDS011;13496;51.040;13.680;2023-11-19T09:14:27;3.22;;;1.60;;
25637;SDS011;13496;51.040;13.680;2023-11-19T09:19:29;5.05;;;1.50;;
25637;SDS011;13496;51.040;13.680;2023-11-19T09:24:34;4.93;;;1.80;;
25637;SDS011;13496;51.040;13.680;2023-11-19T09:29:35;2.72;;;1.70;;
25637;SDS011;13496;51.040;13.680;2023-11-19T09:34:37;4.00;;;1.65;;
25637;SDS011;13496;51.040;13.680;2023-11-19T09:39:39;6.22;;;1.80;;
25637;SDS011;13496;51.040;13.680;2023-11-19T09:44:44;2.28;;;1.50;;
25637;SDS011;13496;51.040;13.680;2023-11-19T09:49:46;3.45;;;1.77;;
25637;SDS011;13496;51.040;13.680;2023-11-19T09:54:49;3.60;;;1.60;;
25637;SDS011;13496;51.040;13.680;2023-11-19T09:59:50;4.35;;;1.85;;
25637;SDS011;13496;51.040;13.680;2023-11-19T10:04:53;2.08;;;1.30;;
25637;SDS011;13496;51.040;13.680;2023-11-19T10:09:56;3.78;;;1.70;;
25637;SDS011;13496;51.040;13.680;2023-11-19T10:14:58;3.97;;;1.55;;
25637;SDS011;13496;51.040;13.680;2023-11-19T10:20:00;2.72;;;1.58;;
25637;SDS011;13496;51.040;13.680;2023-11-19T10:25:02;2.35;;;1.67;;
25637;SDS011;13496;51.040;13.680;2023-11-19T10:30:04;2.50;;;1.75;;
25637;SDS011;13496;51.040;13.680;2023-11-19T10:35:06;3.60;;;1.55;;
25637;SDS011;13496;51.040;13.680;2023-11-19T10:40:09;3.35;;;1.38;;
25637;SDS011;13496;51.040;13.680;2023-11-19T10:45:23;3.38;;;1.55;;
25637;SDS011;13496;51.040;13.680;2023-11-19T10:50:26;2.22;;;1.50;;
25637;SDS011;13496;51.040;13.680;2023-11-19T10:55:35;4.07;;;1.45;;
25637;SDS011;13496;51.040;13.680;2023-11-19T11:05:48;3.72;;;1.73;;
25637;SDS011;13496;51.040;13.680;2023-11-19T11:10:53;2.55;;;1.50;;
25637;SDS011;13496;51.040;13.680;2023-11-19T11:15:56;2.78;;;1.45;;
25637;SDS011;13496;51.040;13.680;2023-11-19T11:21:07;2.67;;;1.30;;
25637;SDS011;13496;51.040;13.680;2023-11-19T11:26:23;2.90;;;1.20;;
25637;SDS011;13496;51.040;13.680;2023-11-19T11:37:18;1.88;;;1.48;;
25637;SDS011;13496;51.040;13.680;2023-11-19T11:42:34;2.65;;;1.40;;
25637;SDS011;13496;51.040;13.680;2023-11-19T11:57:57;2.33;;;1.20;;
25637;SDS011;13496;51.040;13.680;2023-11-19T12:03:00;2.17;;;1.00;;
25637;SDS011;13496;51.040;13.680;2023-11-19T12:08:04;1.45;;;1.13;;
25637;SDS011;13496;51.040;13.680;2023-11-19T12:13:08;2.85;;;1.15;;
25637;SDS011;13496;51.040;13.680;2023-11-19T12:18:10;1.35;;;1.08;;
25637;SDS011;13496;51.040;13.680;2023-11-19T12:23:12;2.22;;;1.30;;
25637;SDS011;13496;51.040;13.680;2023-11-19T12:28:16;8.43;;;1.92;;
25637;SDS011;13496;51.040;13.680;2023-11-19T12:33:18;10.90;;;2.25;;
25637;SDS011;13496;51.040;13.680;2023-11-19T12:38:24;8.52;;;1.90;;
25637;SDS011;13496;51.040;13.680;2023-11-19T12:43:27;8.93;;;2.45;;
25637;SDS011;13496;51.040;13.680;2023-11-19T12:48:28;8.45;;;2.20;;
25637;SDS011;13496;51.040;13.680;2023-11-19T12:53:46;8.63;;;2.20;;
25637;SDS011;13496;51.040;13.680;2023-11-19T12:58:50;8.82;;;2.13;;
25637;SDS011;13496;51.040;13.680;2023-11-19T13:03:51;9.65;;;2.25;;
25637;SDS011;13496;51.040;13.680;2023-11-19T13:08:53;6.13;;;1.85;;
25637;SDS011;13496;51.040;13.680;2023-11-19T13:14:00;12.02;;;2.40;;
25637;SDS011;13496;51.040;13.680;2023-11-19T13:19:16;8.55;;;2.00;;
25637;SDS011;13496;51.040;13.680;2023-11-19T13:24:20;3.83;;;1.67;;
25637;SDS011;13496;51.040;13.680;2023-11-19T13:29:21;3.67;;;1.35;;
25637;SDS011;13496;51.040;13.680;2023-11-19T13:34:23;4.05;;;1.60;;
25637;SDS011;13496;51.040;13.680;2023-11-19T13:39:25;3.75;;;1.77;;
25637;SDS011;13496;51.040;13.680;2023-11-19T13:44:26;3.08;;;1.67;;
25637;SDS011;13496;51.040;13.680;2023-11-19T13:49:28;3.28;;;1.60;;
25637;SDS011;13496;51.040;13.680;2023-11-19T13:54:30;3.63;;;1.60;;
25637;SDS011;13496;51.040;13.680;2023-11-19T13:59:32;3.33;;;1.38;;
25637;SDS011;13496;51.040;13.680;2023-11-19T14:04:34;6.32;;;1.90;;
25637;SDS011;13496;51.040;13.680;2023-11-19T14:09:35;4.43;;;1.80;;
25637;SDS011;13496;51.040;13.680;2023-11-19T14:14:37;9.60;;;2.60;;
25637;SDS011;13496;51.040;13.680;2023-11-19T14:19:41;100.03;;;11.55;;
25637;SDS011;13496;51.040;13.680;2023-11-19T14:24:43;174.13;;;19.15;;
25637;SDS011;13496;51.040;13.680;2023-11-19T14:29:45;470.27;;;39.05;;
25637;SDS011;13496;51.040;13.680;2023-11-19T14:34:47;138.98;;;14.40;;
25637;SDS011;13496;51.040;13.680;2023-11-19T14:39:49;113.07;;;13.57;;
25637;SDS011;13496;51.040;13.680;2023-11-19T14:44:52;85.63;;;10.48;;
25637;SDS011;13496;51.040;13.680;2023-11-19T14:49:54;66.07;;;9.05;;
25637;SDS011;13496;51.040;13.680;2023-11-19T14:54:56;59.85;;;9.57;;
25637;SDS011;13496;51.040;13.680;2023-11-19T14:59:58;43.10;;;6.85;;
25637;SDS011;13496;51.040;13.680;2023-11-19T15:04:59;40.30;;;6.35;;
25637;SDS011;13496;51.040;13.680;2023-11-19T15:10:01;51.42;;;7.40;;
25637;SDS011;13496;51.040;13.680;2023-11-19T15:15:03;34.95;;;6.50;;
25637;SDS011;13496;51.040;13.680;2023-11-19T15:20:06;51.25;;;7.75;;
25637;SDS011;13496;51.040;13.680;2023-11-19T15:25:08;54.13;;;8.45;;
25637;SDS011;13496;51.040;13.680;2023-11-19T15:30:11;54.55;;;7.57;;
25637;SDS011;13496;51.040;13.680;2023-11-19T15:35:13;164.73;;;18.50;;
25637;SDS011;13496;51.040;13.680;2023-11-19T15:40:17;55.50;;;8.63;;
25637;SDS011;13496;51.040;13.680;2023-11-19T15:45:19;66.40;;;11.60;;
25637;SDS011;13496;51.040;13.680;2023-11-19T15:50:21;71.43;;;10.77;;
25637;SDS011;13496;51.040;13.680;2023-11-19T15:55:23;68.97;;;10.48;;
25637;SDS011;13496;51.040;13.680;2023-11-19T16:00:25;58.22;;;10.55;;
25637;SDS011;13496;51.040;13.680;2023-11-19T16:05:27;82.53;;;11.95;;
25637;SDS011;13496;51.040;13.680;2023-11-19T16:10:28;76.47;;;12.27;;
25637;SDS011;13496;51.040;13.680;2023-11-19T16:15:33;65.88;;;11.63;;
25637;SDS011;13496;51.040;13.680;2023-11-19T16:20:37;79.85;;;13.65;;
25637;SDS011;13496;51.040;13.680;2023-11-19T16:25:43;63.00;;;12.57;;
25637;SDS011;13496;51.040;13.680;2023-11-19T16:30:45;52.13;;;9.60;;
25637;SDS011;13496;51.040;13.680;2023-11-19T16:35:47;53.92;;;9.10;;
25637;SDS011;13496;51.040;13.680;2023-11-19T16:40:49;44.13;;;8.25;;
25637;SDS011;13496;51.040;13.680;2023-11-19T16:45:53;62.47;;;10.52;;
25637;SDS011;13496;51.040;13.680;2023-11-19T16:50:55;71.05;;;12.60;;
25637;SDS011;13496;51.040;13.680;2023-11-19T16:55:56;76.93;;;12.45;;
25637;SDS011;13496;51.040;13.680;2023-11-19T17:00:58;59.28;;;11.68;;
25637;SDS011;13496;51.040;13.680;2023-11-19T17:06:00;61.88;;;10.23;;
25637;SDS011;13496;51.040;13.680;2023-11-19T17:11:03;58.08;;;10.00;;
25637;SDS011;13496;51.040;13.680;2023-11-19T17:16:07;54.20;;;9.18;;
25637;SDS011;13496;51.040;13.680;2023-11-19T17:21:09;39.65;;;7.80;;
25637;SDS011;13496;51.040;13.680;2023-11-19T17:26:14;35.22;;;8.18;;
25637;SDS011;13496;51.040;13.680;2023-11-19T17:31:16;35.78;;;7.60;;
25637;SDS011;13496;51.040;13.680;2023-11-19T17:36:18;29.85;;;6.63;;
25637;SDS011;13496;51.040;13.680;2023-11-19T17:41:20;29.42;;;6.10;;
25637;SDS011;13496;51.040;13.680;2023-11-19T17:46:23;26.73;;;6.35;;
25637;SDS011;13496;51.040;13.680;2023-11-19T17:51:27;20.35;;;5.45;;
25637;SDS011;13496;51.040;13.680;2023-11-19T17:56:28;20.83;;;5.35;;
25637;SDS011;13496;51.040;13.680;2023-11-19T18:01:30;20.58;;;4.57;;
25637;SDS011;13496;51.040;13.680;2023-11-19T18:06:32;25.05;;;5.60;;
25637;SDS011;13496;51.040;13.680;2023-11-19T18:11:36;37.58;;;7.45;;
25637;SDS011;13496;51.040;13.680;2023-11-19T18:16:38;38.63;;;7.88;;
25637;SDS011;13496;51.040;13.680;2023-11-19T18:21:39;38.72;;;6.90;;
25637;SDS011;13496;51.040;13.680;2023-11-19T18:26:41;36.65;;;6.93;;
25637;SDS011;13496;51.040;13.680;2023-11-19T18:31:44;41.22;;;7.53;;
25637;SDS011;13496;51.040;13.680;2023-11-19T18:36:46;33.90;;;6.47;;
25637;SDS011;13496;51.040;13.680;2023-11-19T18:41:47;40.25;;;8.18;;
25637;SDS011;13496;51.040;13.680;2023-11-19T18:46:49;47.65;;;9.10;;
25637;SDS011;13496;51.040;13.680;2023-11-19T18:51:51;49.03;;;9.20;;
25637;SDS011;13496;51.040;13.680;2023-11-19T18:56:53;50.40;;;9.43;;
25637;SDS011;13496;51.040;13.680;2023-11-19T19:01:58;55.67;;;9.13;;
25637;SDS011;13496;51.040;13.680;2023-11-19T19:07:00;64.97;;;10.48;;
25637;SDS011;13496;51.040;13.680;2023-11-19T19:12:04;45.80;;;7.63;;
25637;SDS011;13496;51.040;13.680;2023-11-19T19:17:07;54.23;;;10.80;;
25637;SDS011;13496;51.040;13.680;2023-11-19T19:22:12;53.53;;;9.88;;
25637;SDS011;13496;51.040;13.680;2023-11-19T19:27:14;53.75;;;10.75;;
25637;SDS011;13496;51.040;13.680;2023-11-19T19:32:16;49.92;;;9.50;;
25637;SDS011;13496;51.040;13.680;2023-11-19T19:37:18;36.67;;;8.45;;
25637;SDS011;13496;51.040;13.680;2023-11-19T19:42:20;42.72;;;8.00;;
25637;SDS011;13496;51.040;13.680;2023-11-19T19:47:24;42.70;;;7.88;;
25637;SDS011;13496;51.040;13.680;2023-11-19T19:52:25;36.72;;;7.18;;
25637;SDS011;13496;51.040;13.680;2023-11-19T19:57:27;33.10;;;7.10;;
25637;SDS011;13496;51.040;13.680;2023-11-19T20:02:29;24.63;;;5.82;;
25637;SDS011;13496;51.040;13.680;2023-11-19T20:07:32;32.88;;;7.05;;
25637;SDS011;13496;51.040;13.680;2023-11-19T20:12:33;30.00;;;6.35;;
25637;SDS011;13496;51.040;13.680;2023-11-19T20:17:35;24.98;;;6.00;;
25637;SDS011;13496;51.040;13.680;2023-11-19T20:22:37;23.50;;;5.57;;
25637;SDS011;13496;51.040;13.680;2023-11-19T20:27:39;23.98;;;5.50;;
25637;SDS011;13496;51.040;13.680;2023-11-19T20:32:41;19.77;;;5.78;;
25637;SDS011;13496;51.040;13.680;2023-11-19T20:37:43;22.45;;;5.40;;
25637;SDS011;13496;51.040;13.680;2023-11-19T20:42:45;17.83;;;5.13;;
25637;SDS011;13496;51.040;13.680;2023-11-19T20:47:47;20.60;;;4.72;;
25637;SDS011;13496;51.040;13.680;2023-11-19T20:52:52;17.23;;;4.40;;
25637;SDS011;13496;51.040;13.680;2023-11-19T20:57:54;11.70;;;4.38;;
25637;SDS011;13496;51.040;13.680;2023-11-19T21:02:56;11.15;;;3.88;;
25637;SDS011;13496;51.040;13.680;2023-11-19T21:07:59;14.75;;;4.32;;
25637;SDS011;13496;51.040;13.680;2023-11-19T21:13:01;16.65;;;4.18;;
25637;SDS011;13496;51.040;13.680;2023-11-19T21:18:02;11.05;;;3.45;;
25637;SDS011;13496;51.040;13.680;2023-11-19T21:23:05;15.32;;;3.88;;
25637;SDS011;13496;51.040;13.680;2023-11-19T21:28:07;12.15;;;3.75;;
25637;SDS011;13496;51.040;13.680;2023-11-19T21:33:09;10.77;;;3.33;;
25637;SDS011;13496;51.040;13.680;2023-11-19T21:38:10;11.25;;;3.63;;
25637;SDS011;13496;51.040;13.680;2023-11-19T21:43:12;10.25;;;3.30;;
25637;SDS011;13496;51.040;13.680;2023-11-19T21:48:14;10.02;;;3.10;;
25637;SDS011;13496;51.040;13.680;2023-11-19T21:53:16;11.50;;;3.28;;
25637;SDS011;13496;51.040;13.680;2023-11-19T21:58:18;9.35;;;2.90;;
25637;SDS011;13496;51.040;13.680;2023-11-19T22:03:19;9.25;;;3.00;;
25637;SDS011;13496;51.040;13.680;2023-11-19T22:08:21;13.55;;;3.65;;
25637;SDS011;13496;51.040;13.680;2023-11-19T22:13:23;9.23;;;3.33;;
25637;SDS011;13496;51.040;13.680;2023-11-19T22:18:24;6.32;;;2.53;;
25637;SDS011;13496;51.040;13.680;2023-11-19T22:23:26;6.57;;;2.72;;
25637;SDS011;13496;51.040;13.680;2023-11-19T22:28:28;5.82;;;2.58;;
25637;SDS011;13496;51.040;13.680;2023-11-19T22:33:30;8.15;;;2.70;;
25637;SDS011;13496;51.040;13.680;2023-11-19T22:38:32;6.38;;;2.22;;
25637;SDS011;13496;51.040;13.680;2023-11-19T22:43:33;6.00;;;2.92;;
25637;SDS011;13496;51.040;13.680;2023-11-19T22:48:35;5.07;;;2.40;;
25637;SDS011;13496;51.040;13.680;2023-11-19T22:53:37;6.25;;;2.15;;
25637;SDS011;13496;51.040;13.680;2023-11-19T22:58:39;5.10;;;2.55;;
25637;SDS011;13496;51.040;13.680;2023-11-19T23:03:44;3.97;;;2.25;;
25637;SDS011;13496;51.040;13.680;2023-11-19T23:08:45;4.30;;;2.25;;
25637;SDS011;13496;51.040;13.680;2023-11-19T23:13:47;5.82;;;2.42;;
25637;SDS011;13496;51.040;13.680;2023-11-19T23:18:49;4.57;;;2.03;;
25637;SDS011;13496;51.040;13.680;2023-11-19T23:23:50;3.85;;;1.90;;
25637;SDS011;13496;51.040;13.680;2023-11-19T23:28:52;3.33;;;1.88;;
25637;SDS011;13496;51.040;13.680;2023-11-19T23:33:54;5.80;;;2.03;;
25637;SDS011;13496;51.040;13.680;2023-11-19T23:38:56;4.95;;;2.00;;
25637;SDS011;13496;51.040;13.680;2023-11-19T23:43:57;4.10;;;2.08;;
25637;SDS011;13496;51.040;13.680;2023-11-19T23:49:00;5.50;;;1.80;;
25637;SDS011;13496;51.040;13.680;2023-11-19T23:54:05;4.18;;;1.98;;
25637;SDS011;13496;51.040;13.680;2023-11-19T23:59:06;4.38;;;2.10;;
